createdAt,value
2023-05-24T00:00:26.323Z,87.51
2023-05-24T00:03:31.201Z,87.51
2023-05-24T00:06:35.229Z,87.34
2023-05-24T00:09:40.091Z,87.55
2023-05-24T00:12:44.011Z,87.83
2023-05-24T00:15:47.535Z,87.32
2023-05-24T00:18:52.359Z,87.87
2023-05-24T00:21:56.165Z,87.88
2023-05-24T00:25:00.943Z,87.80
2023-05-24T00:28:04.891Z,87.65
2023-05-24T00:31:08.634Z,87.62
2023-05-24T00:34:12.322Z,87.30
2023-05-24T00:37:16.043Z,87.95
2023-05-24T00:40:21.238Z,87.75
2023-05-24T00:43:26.613Z,88.02
2023-05-24T00:46:31.589Z,88.18
2023-05-24T00:49:36.199Z,87.84
2023-05-24T00:52:40.444Z,87.68
2023-05-24T00:55:45.568Z,88.01
2023-05-24T00:58:50.624Z,87.98
2023-05-24T01:01:55.629Z,87.81
2023-05-24T01:05:00.165Z,88.23
2023-05-24T01:08:11.994Z,88.86
2023-05-24T01:11:27.690Z,88.90
2023-05-24T01:14:39.475Z,89.11
2023-05-24T01:17:53.254Z,89.04
2023-05-24T01:21:07.921Z,89.13
2023-05-24T01:24:19.804Z,89.44
2023-05-24T01:27:25.879Z,89.21
2023-05-24T01:30:30.136Z,89.08
2023-05-24T01:33:34.245Z,89.19
2023-05-24T01:36:37.670Z,89.39
2023-05-24T01:39:41.998Z,89.18
2023-05-24T01:42:50.597Z,89.07
2023-05-24T01:46:04.585Z,89.26
2023-05-24T01:49:18.256Z,89.22
2023-05-24T01:52:25.411Z,89.21
2023-05-24T01:55:30.180Z,89.24
2023-05-24T01:58:37.859Z,89.42
2023-05-24T02:01:42.093Z,88.82
2023-05-24T02:04:45.781Z,88.95
2023-05-24T02:07:49.378Z,88.42
2023-05-24T02:10:53.243Z,88.72
2023-05-24T02:13:58.117Z,88.76
2023-05-24T02:17:02.998Z,88.72
2023-05-24T02:20:08.065Z,88.65
2023-05-24T02:23:11.570Z,88.82
2023-05-24T02:26:15.046Z,89.02
2023-05-24T02:29:19.906Z,88.59
2023-05-24T02:32:23.398Z,88.56
2023-05-24T02:35:27.183Z,88.44
2023-05-24T02:38:32.019Z,88.14
2023-05-24T02:41:35.337Z,88.16
2023-05-24T02:44:40.423Z,88.20
2023-05-24T02:47:43.992Z,88.49
2023-05-24T02:50:47.604Z,88.68
2023-05-24T02:53:51.055Z,88.90
2023-05-24T02:56:56.784Z,88.93
2023-05-24T03:00:02.584Z,89.53
2023-05-24T03:03:08.983Z,90.26
2023-05-24T03:06:14.224Z,90.40
2023-05-24T03:09:19.226Z,90.14
2023-05-24T03:12:23.342Z,90.46
2023-05-24T03:15:29.004Z,90.12
2023-05-24T03:18:32.497Z,90.16
2023-05-24T03:21:36.293Z,90.79
2023-05-24T03:24:40.296Z,91.20
2023-05-24T03:27:44.551Z,91.32
2023-05-24T03:30:50.698Z,91.43
2023-05-24T03:33:55.536Z,91.41
2023-05-24T03:36:59.517Z,91.75
2023-05-24T03:40:04.883Z,92.22
2023-05-24T03:43:20.542Z,92.23
2023-05-24T03:46:35.139Z,92.68
2023-05-24T03:49:38.956Z,92.15
2023-05-24T03:52:43.874Z,92.02
2023-05-24T03:55:47.505Z,91.76
2023-05-24T03:58:52.487Z,91.95
2023-05-24T04:01:57.760Z,92.34
2023-05-24T04:05:01.883Z,91.96
2023-05-24T04:08:05.789Z,92.39
2023-05-24T04:11:09.507Z,91.94
2023-05-24T04:14:14.267Z,91.14
2023-05-24T04:17:19.541Z,90.66
2023-05-24T04:20:31.340Z,90.41
2023-05-24T04:23:35.059Z,90.47
2023-05-24T04:26:38.877Z,90.70
2023-05-24T04:29:43.410Z,90.74
2023-05-24T04:32:48.851Z,90.95
2023-05-24T04:35:53.400Z,90.71
2023-05-24T04:39:02.996Z,91.14
2023-05-24T04:42:09.984Z,91.26
2023-05-24T04:45:13.778Z,91.51
2023-05-24T04:48:19.736Z,91.82
2023-05-24T04:51:23.659Z,91.39
2023-05-24T04:54:27.687Z,90.65
2023-05-24T04:57:31.291Z,90.07
2023-05-24T05:00:37.383Z,89.29
2023-05-24T05:03:43.412Z,88.86
2023-05-24T05:06:48.393Z,89.22
2023-05-24T05:09:52.112Z,89.02
2023-05-24T05:12:55.733Z,89.11
2023-05-24T05:15:59.385Z,89.45
2023-05-24T05:19:06.336Z,89.29
2023-05-24T05:22:12.306Z,88.99
2023-05-24T05:25:15.986Z,89.28
2023-05-24T05:28:19.661Z,89.02
2023-05-24T05:31:23.561Z,89.13
2023-05-24T05:34:28.681Z,89.05
2023-05-24T05:37:32.302Z,89.08
2023-05-24T05:40:36.044Z,89.47
2023-05-24T05:43:40.606Z,89.56
2023-05-24T05:46:46.558Z,89.58
2023-05-24T05:49:51.683Z,89.17
2023-05-24T05:52:55.765Z,89.09
2023-05-24T05:55:59.438Z,89.06
2023-05-24T05:59:03.427Z,88.83
2023-05-24T06:02:08.795Z,88.24
2023-05-24T06:05:14.611Z,88.37
2023-05-24T06:08:19.623Z,88.10
2023-05-24T06:11:23.902Z,87.45
2023-05-24T06:14:27.724Z,87.39
2023-05-24T06:17:31.224Z,87.49
2023-05-24T06:20:37.086Z,87.49
2023-05-24T06:23:40.792Z,87.40
2023-05-24T06:26:44.605Z,87.72
2023-05-24T06:29:49.333Z,88.18
2023-05-24T06:32:53.178Z,88.34
2023-05-24T06:35:58.179Z,87.78
2023-05-24T06:39:01.795Z,87.90
2023-05-24T06:42:06.105Z,87.77
2023-05-24T06:45:14.286Z,87.80
2023-05-24T06:48:18.126Z,87.95
2023-05-24T06:51:23.221Z,87.53
2023-05-24T06:54:26.858Z,87.76
2023-05-24T06:57:30.452Z,87.42
2023-05-24T07:00:34.345Z,87.67
2023-05-24T07:03:38.589Z,87.50
2023-05-24T07:06:43.718Z,87.25
2023-05-24T07:09:47.662Z,87.24
2023-05-24T07:12:51.480Z,87.28
2023-05-24T07:15:55.114Z,87.47
2023-05-24T07:19:00.362Z,87.11
2023-05-24T07:22:06.645Z,87.28
2023-05-24T07:25:11.134Z,86.81
2023-05-24T07:28:18.364Z,87.15
2023-05-24T07:31:23.102Z,86.73
2023-05-24T07:34:30.065Z,86.59
2023-05-24T07:37:36.617Z,86.52
2023-05-24T07:40:40.430Z,85.93
2023-05-24T07:43:44.297Z,86.14
2023-05-24T07:46:48.280Z,85.93
2023-05-24T07:49:52.002Z,85.58
2023-05-24T07:52:57.861Z,86.26
2023-05-24T07:56:01.765Z,87.10
2023-05-24T07:59:05.408Z,87.31
2023-05-24T08:02:11.808Z,87.45
2023-05-24T08:05:15.427Z,87.36
2023-05-24T08:08:20.585Z,87.20
2023-05-24T08:11:24.404Z,87.44
2023-05-24T08:14:27.856Z,87.12
2023-05-24T08:17:32.107Z,87.13
2023-05-24T08:20:36.813Z,86.99
2023-05-24T08:23:41.755Z,86.70
2023-05-24T08:26:45.401Z,86.48
2023-05-24T08:29:48.878Z,86.59
2023-05-24T08:32:52.523Z,86.30
2023-05-24T08:35:56.066Z,86.42
2023-05-24T08:39:00.948Z,85.91
2023-05-24T08:42:09.681Z,86.11
2023-05-24T08:45:15.554Z,85.94
2023-05-24T08:48:21.042Z,86.05
2023-05-24T08:51:27.476Z,85.83
2023-05-24T08:54:32.845Z,85.63
2023-05-24T08:57:40.098Z,85.41
2023-05-24T09:00:43.847Z,85.29
2023-05-24T09:03:48.821Z,85.18
2023-05-24T09:06:54.219Z,85.53
2023-05-24T09:10:05.468Z,85.35
2023-05-24T09:13:10.283Z,85.41
2023-05-24T09:16:14.129Z,85.30
2023-05-24T09:19:18.338Z,85.40
2023-05-24T09:22:27.382Z,85.33
2023-05-24T09:25:32.474Z,85.36
2023-05-24T09:28:36.426Z,85.31
2023-05-24T09:31:48.305Z,84.97
2023-05-24T09:34:54.863Z,84.41
2023-05-24T09:38:00.110Z,84.39
2023-05-24T09:41:06.646Z,83.89
2023-05-24T09:44:19.188Z,82.89
2023-05-24T09:47:39.015Z,83.13
2023-05-24T09:51:05.720Z,82.40
2023-05-24T09:54:10.498Z,81.59
2023-05-24T09:57:30.181Z,81.39
2023-05-24T10:00:43.237Z,81.22
2023-05-24T10:03:54.471Z,80.84
2023-05-24T10:06:58.540Z,81.18
2023-05-24T10:10:02.963Z,80.23
2023-05-24T10:13:09.077Z,80.22
2023-05-24T10:16:13.020Z,79.41
2023-05-24T10:19:17.181Z,79.83
2023-05-24T10:22:23.733Z,79.83
2023-05-24T10:25:29.332Z,80.08
2023-05-24T10:28:37.266Z,79.57
2023-05-24T10:31:43.493Z,79.44
2023-05-24T10:34:49.202Z,79.30
2023-05-24T10:37:52.719Z,79.29
2023-05-24T10:40:56.610Z,79.11
2023-05-24T10:44:09.788Z,79.48
2023-05-24T10:47:15.656Z,79.15
2023-05-24T10:50:20.363Z,78.44
2023-05-24T10:53:27.477Z,78.35
2023-05-24T10:56:31.321Z,78.04
2023-05-24T10:59:41.311Z,77.15
2023-05-24T11:02:44.805Z,77.81
2023-05-24T11:05:55.565Z,78.15
2023-05-24T11:09:02.431Z,78.32
2023-05-24T11:12:09.255Z,78.66
2023-05-24T11:15:14.661Z,77.25
2023-05-24T11:18:20.598Z,77.04
2023-05-24T11:21:24.372Z,77.50
2023-05-24T11:24:30.421Z,76.70
2023-05-24T11:27:35.490Z,75.71
2023-05-24T11:30:42.854Z,76.34
2023-05-24T11:33:46.702Z,76.17
2023-05-24T11:36:50.670Z,75.28
2023-05-24T11:39:54.537Z,74.86
2023-05-24T11:43:01.873Z,74.70
2023-05-24T11:46:07.442Z,73.76
2023-05-24T11:49:14.944Z,73.85
2023-05-24T11:52:18.980Z,74.07
2023-05-24T11:55:26.013Z,74.21
2023-05-24T11:58:39.383Z,75.06
2023-05-24T12:01:44.959Z,74.89
2023-05-24T12:04:48.598Z,75.81
2023-05-24T12:08:04.882Z,76.43
2023-05-24T12:11:08.768Z,75.85
2023-05-24T12:14:18.263Z,76.01
2023-05-24T12:17:23.255Z,74.85
2023-05-24T12:20:29.832Z,73.91
2023-05-24T12:23:33.437Z,73.23
2023-05-24T12:26:38.135Z,73.50
2023-05-24T12:29:42.628Z,72.58
2023-05-24T12:32:48.419Z,72.70
2023-05-24T12:35:51.993Z,72.71
2023-05-24T12:38:58.696Z,72.77
2023-05-24T12:42:02.892Z,72.50
2023-05-24T12:45:07.385Z,72.30
2023-05-24T12:48:12.571Z,72.93
2023-05-24T12:51:15.997Z,73.75
2023-05-24T12:54:21.177Z,72.92
2023-05-24T12:57:24.669Z,73.42
2023-05-24T13:00:30.561Z,73.53
2023-05-24T13:03:37.709Z,72.14
2023-05-24T13:06:41.156Z,71.50
2023-05-24T13:09:44.640Z,70.93
2023-05-24T13:12:48.295Z,70.95
2023-05-24T13:15:52.205Z,71.07
2023-05-24T13:18:57.141Z,69.65
2023-05-24T13:22:00.622Z,69.86
2023-05-24T13:25:04.733Z,70.63
2023-05-24T13:28:08.511Z,70.56
2023-05-24T13:31:12.267Z,70.61
2023-05-24T13:34:18.927Z,71.36
2023-05-24T13:37:22.958Z,71.00
2023-05-24T13:40:26.603Z,70.13
2023-05-24T13:43:30.691Z,71.20
2023-05-24T13:46:36.817Z,71.67
2023-05-24T13:49:42.433Z,72.63
2023-05-24T13:52:46.163Z,71.70
2023-05-24T13:55:50.006Z,71.48
2023-05-24T13:58:53.827Z,71.54
2023-05-24T14:01:57.614Z,70.57
2023-05-24T14:05:21.624Z,70.10
2023-05-24T14:08:28.511Z,69.53
2023-05-24T14:11:32.845Z,70.33
2023-05-24T14:14:59.271Z,69.10
2023-05-24T14:18:08.239Z,69.57
2023-05-24T14:21:13.680Z,69.08
2023-05-24T14:24:17.271Z,69.26
2023-05-24T14:27:21.277Z,70.09
2023-05-24T14:30:24.743Z,69.00
2023-05-24T14:33:28.227Z,69.51
2023-05-24T14:36:33.823Z,69.05
2023-05-24T14:42:40.946Z,69.01
2023-05-24T14:45:44.938Z,68.44
2023-05-24T14:48:48.885Z,69.15
2023-05-24T14:51:53.954Z,68.06
2023-05-24T14:54:58.115Z,69.63
2023-05-24T14:58:01.762Z,69.68
2023-05-24T15:01:05.289Z,69.11
2023-05-24T15:04:09.325Z,68.74
2023-05-24T15:07:14.344Z,69.12
2023-05-24T15:10:18.195Z,69.04
2023-05-24T15:13:23.162Z,68.78
2023-05-24T15:16:27.011Z,68.81
2023-05-24T15:19:30.751Z,69.06
2023-05-24T15:22:36.047Z,69.63
2023-05-24T15:25:41.285Z,69.66
2023-05-24T15:28:45.168Z,69.96
2023-05-24T15:31:49.158Z,70.18
2023-05-24T15:34:53.079Z,70.50
2023-05-24T15:37:58.935Z,70.77
2023-05-24T15:41:03.969Z,71.34
2023-05-24T15:44:09.050Z,71.10
2023-05-24T15:47:13.101Z,71.02
2023-05-24T15:50:20.215Z,70.67
2023-05-24T15:53:28.688Z,70.72
2023-05-24T15:56:32.112Z,71.23
2023-05-24T15:59:38.881Z,71.51
2023-05-24T16:02:42.653Z,71.74
2023-05-24T16:05:48.841Z,71.66
2023-05-24T16:08:54.073Z,71.83
2023-05-24T16:11:57.888Z,71.64
2023-05-24T16:15:02.046Z,71.75
2023-05-24T16:18:07.227Z,72.55
2023-05-24T16:21:11.125Z,72.44
2023-05-24T16:24:16.165Z,72.85
2023-05-24T16:27:20.165Z,72.53
2023-05-24T16:30:24.074Z,72.40
2023-05-24T16:33:28.058Z,73.29
2023-05-24T16:36:31.937Z,73.00
2023-05-24T16:39:38.524Z,72.59
2023-05-24T16:42:42.265Z,73.06
2023-05-24T16:45:46.408Z,73.00
2023-05-24T16:48:50.105Z,72.90
2023-05-24T16:51:57.191Z,72.54
2023-05-24T16:55:02.237Z,71.84
2023-05-24T16:58:06.111Z,71.80
2023-05-24T17:01:10.082Z,72.21
2023-05-24T17:04:14.365Z,72.47
2023-05-24T17:07:17.951Z,72.74
2023-05-24T17:10:23.572Z,73.26
2023-05-24T17:13:28.635Z,73.13
2023-05-24T17:16:32.309Z,73.09
2023-05-24T17:19:36.748Z,73.13
2023-05-24T17:22:40.289Z,72.72
2023-05-24T17:25:46.348Z,73.22
2023-05-24T17:28:50.117Z,73.77
2023-05-24T17:31:53.817Z,72.81
2023-05-24T17:34:58.468Z,73.31
2023-05-24T17:38:08.872Z,73.34
2023-05-24T17:41:47.313Z,73.45
2023-05-24T17:44:51.551Z,74.29
2023-05-24T17:47:56.531Z,74.42
2023-05-24T17:51:01.037Z,74.41
2023-05-24T17:54:05.099Z,74.32
2023-05-24T17:57:10.361Z,74.31
2023-05-24T18:00:15.089Z,74.39
2023-05-24T18:03:26.414Z,74.42
2023-05-24T18:06:30.072Z,74.73
2023-05-24T18:09:33.621Z,74.64
2023-05-24T18:12:39.108Z,74.63
2023-05-24T18:15:45.180Z,74.11
2023-05-24T18:18:49.040Z,74.39
2023-05-24T18:21:53.527Z,75.02
2023-05-24T18:24:58.756Z,74.94
2023-05-24T18:28:04.070Z,75.82
2023-05-24T18:31:10.485Z,74.99
2023-05-24T18:34:13.978Z,75.77
2023-05-24T18:37:17.851Z,75.86
2023-05-24T18:40:23.569Z,75.56
2023-05-24T18:43:28.589Z,75.32
2023-05-24T18:46:33.392Z,75.60
2023-05-24T18:49:37.463Z,75.93
2023-05-24T18:52:41.735Z,76.23
2023-05-24T18:55:47.152Z,76.04
2023-05-24T18:58:53.959Z,76.15
2023-05-24T19:01:58.059Z,76.59
2023-05-24T19:05:01.531Z,76.08
2023-05-24T19:08:05.320Z,76.55
2023-05-24T19:11:11.184Z,76.88
2023-05-24T19:14:20.218Z,76.19
2023-05-24T19:17:27.066Z,76.46
2023-05-24T19:20:30.910Z,76.74
2023-05-24T19:23:34.761Z,76.60
2023-05-24T19:26:38.830Z,76.24
2023-05-24T19:29:43.686Z,75.68
2023-05-24T19:32:47.415Z,76.51
2023-05-24T19:35:51.757Z,76.18
2023-05-24T19:38:56.103Z,75.61
2023-05-24T19:41:59.867Z,75.74
2023-05-24T19:45:05.197Z,75.46
2023-05-24T19:48:10.113Z,75.51
2023-05-24T19:51:15.823Z,76.01
2023-05-24T19:54:19.721Z,75.84
2023-05-24T19:57:23.253Z,76.04
2023-05-24T20:00:28.519Z,75.44
2023-05-24T20:03:32.320Z,75.74
2023-05-24T20:06:38.867Z,75.61
2023-05-24T20:09:42.972Z,75.95
2023-05-24T20:12:46.866Z,76.40
2023-05-24T20:15:55.031Z,76.54
2023-05-24T20:18:59.713Z,76.11
2023-05-24T20:22:03.728Z,76.47
2023-05-24T20:25:09.087Z,76.92
2023-05-24T20:28:29.035Z,76.95
2023-05-24T20:31:38.004Z,76.42
2023-05-24T20:34:41.754Z,76.42
2023-05-24T20:37:45.541Z,77.00
2023-05-24T20:40:49.103Z,76.77
2023-05-24T20:43:53.057Z,76.33
2023-05-24T20:46:58.738Z,75.64
2023-05-24T20:50:02.455Z,75.71
2023-05-24T20:53:06.108Z,76.11
2023-05-24T20:56:13.642Z,75.57
2023-05-24T20:59:18.357Z,75.84
2023-05-24T21:02:23.737Z,75.66
2023-05-24T21:05:27.656Z,76.46
2023-05-24T21:08:32.074Z,76.25
2023-05-24T21:11:36.636Z,75.73
2023-05-24T21:14:40.938Z,75.95
2023-05-24T21:17:46.053Z,76.00
2023-05-24T21:20:50.172Z,76.26
2023-05-24T21:23:53.739Z,76.35
2023-05-24T21:26:57.248Z,77.10
2023-05-24T21:30:01.268Z,76.83
2023-05-24T21:33:07.744Z,77.62
2023-05-24T21:36:11.747Z,76.51
2023-05-24T21:39:15.607Z,76.70
2023-05-24T21:42:19.824Z,77.03
2023-05-24T21:45:23.419Z,77.17
2023-05-24T21:48:28.441Z,77.42
2023-05-24T21:51:32.150Z,76.94
2023-05-24T21:54:35.604Z,76.66
2023-05-24T21:57:39.095Z,77.42
2023-05-24T22:00:42.885Z,78.07
2023-05-24T22:03:48.127Z,77.74
2023-05-24T22:06:53.084Z,77.56
2023-05-24T22:09:56.762Z,78.30
2023-05-24T22:13:00.456Z,78.46
2023-05-24T22:16:04.169Z,78.62
2023-05-24T22:19:14.887Z,77.99
2023-05-24T22:22:20.487Z,77.79
2023-05-24T22:25:24.013Z,77.37
2023-05-24T22:28:27.568Z,78.84
2023-05-24T22:31:33.554Z,78.95
2023-05-24T22:34:38.814Z,78.39
2023-05-24T22:37:43.237Z,78.44
2023-05-24T22:40:47.446Z,78.51
2023-05-24T22:43:51.486Z,79.05
2023-05-24T22:46:57.255Z,79.71
2023-05-24T22:50:02.749Z,80.24
2023-05-24T22:53:09.374Z,79.40
2023-05-24T22:56:12.958Z,79.21
2023-05-24T22:59:16.561Z,80.36
2023-05-24T23:02:20.147Z,80.66
2023-05-24T23:05:25.468Z,79.86
2023-05-24T23:08:29.110Z,79.88
2023-05-24T23:11:33.053Z,80.51
2023-05-24T23:14:38.630Z,80.72
2023-05-24T23:17:42.137Z,80.55
2023-05-24T23:20:47.056Z,79.55
2023-05-24T23:23:53.684Z,80.05
2023-05-24T23:26:58.273Z,80.11
2023-05-24T23:30:01.904Z,80.67
2023-05-24T23:33:06.048Z,80.55
2023-05-24T23:36:11.376Z,80.14
2023-05-24T23:39:15.561Z,80.14
2023-05-24T23:42:19.564Z,79.85
2023-05-24T23:45:36.520Z,79.67
2023-05-24T23:48:42.528Z,79.86
2023-05-24T23:51:49.056Z,80.12
2023-05-24T23:54:52.967Z,80.48
2023-05-24T23:57:57.047Z,79.95
